Time;durP1;ratioP1;P1;durP2;ratioP2;P2;SDS_P1;SDS_P2;PMS_P1;PMS_P2;Temp;Humidity;BMP_temperature;BMP_pressure;BME280_temperature;BME280_humidity;BME280_pressure;Samples;Min_cycle;Max_cycle;Signal;HPM_P1;HPM_P2
2021/06/11 00:02:17;;;;;;;12.35;11.15;;;15.50;99.90;;;;;;5074823;28;20031;-83
2021/06/11 00:04:43;;;;;;;11.85;10.65;;;15.50;99.90;;;;;;5073812;28;20366;-82
2021/06/11 00:07:09;;;;;;;11.82;10.70;;;15.50;99.90;;;;;;5071327;28;20033;-82
2021/06/11 00:09:34;;;;;;;11.68;10.48;;;15.50;99.90;;;;;;5073046;28;20036;-82
2021/06/11 00:12:00;;;;;;;13.45;12.02;;;15.40;99.90;;;;;;5072516;28;20020;-83
2021/06/11 00:14:25;;;;;;;12.45;11.30;;;15.40;99.90;;;;;;5073661;28;20095;-84
2021/06/11 00:16:51;;;;;;;11.70;10.48;;;15.40;99.90;;;;;;5072803;28;20031;-83
2021/06/11 00:19:17;;;;;;;12.80;11.50;;;15.40;99.90;;;;;;5073392;28;20032;-81
2021/06/11 00:21:42;;;;;;;13.85;12.07;;;15.30;99.90;;;;;;5073608;28;20421;-84
2021/06/11 00:24:08;;;;;;;12.93;11.63;;;15.30;99.90;;;;;;5072351;28;20791;-83
2021/06/11 00:26:33;;;;;;;12.70;11.50;;;15.20;99.90;;;;;;5073489;28;20032;-82
2021/06/11 00:28:59;;;;;;;12.45;11.25;;;15.20;99.90;;;;;;5071983;28;20044;-82
2021/06/11 00:31:25;;;;;;;12.50;11.20;;;15.20;99.90;;;;;;5055304;28;20039;-82
2021/06/11 00:33:51;;;;;;;12.88;11.68;;;15.10;99.90;;;;;;5072600;28;20123;-81
2021/06/11 00:36:16;;;;;;;13.23;11.82;;;15.10;99.90;;;;;;5072829;28;20457;-82
2021/06/11 00:38:42;;;;;;;12.77;11.48;;;15.10;99.90;;;;;;5073018;28;20033;-82
2021/06/11 00:41:08;;;;;;;12.05;10.85;;;15.10;99.90;;;;;;5072281;28;20453;-82
2021/06/11 00:43:34;;;;;;;12.07;10.88;;;15.10;99.90;;;;;;5073108;28;20021;-82
2021/06/11 00:45:59;;;;;;;11.90;10.80;;;15.10;99.90;;;;;;5071861;28;20032;-81
2021/06/11 00:48:25;;;;;;;13.20;11.70;;;15.10;99.90;;;;;;5073107;28;20027;-81
2021/06/11 00:50:50;;;;;;;11.88;10.75;;;15.10;99.90;;;;;;5071848;28;20466;-81
2021/06/11 00:53:16;;;;;;;12.77;11.48;;;15.10;99.90;;;;;;5072476;28;20072;-82
2021/06/11 00:55:45;;;;;;;13.20;11.90;;;15.10;99.90;;;;;;5072832;28;20035;-82
2021/06/11 00:58:16;;;;;;;14.57;11.27;;;15.10;99.90;;;;;;5054170;28;20032;-82
2021/06/11 01:00:42;;;;;;;;;;;15.10;99.90;;;;;;5073204;28;20063;-81
2021/06/11 01:03:08;;;;;;;12.77;11.57;;;15.10;99.90;;;;;;5072880;28;20094;-82
2021/06/11 01:05:34;;;;;;;12.55;11.25;;;15.00;99.90;;;;;;5072433;28;20473;-82
2021/06/11 01:08:01;;;;;;;13.63;12.27;;;15.00;99.90;;;;;;5070962;28;20102;-82
2021/06/11 01:10:27;;;;;;;12.68;11.45;;;15.00;99.90;;;;;;5072503;28;20039;-82
2021/06/11 01:12:55;;;;;;;13.73;12.35;;;15.00;99.90;;;;;;5071540;28;20031;-82
2021/06/11 01:15:21;;;;;;;12.43;11.23;;;15.00;99.90;;;;;;5072605;28;20082;-84
2021/06/11 01:17:48;;;;;;;11.20;10.20;;;15.00;99.90;;;;;;5071705;28;20035;-79
2021/06/11 01:20:16;;;;;;;14.40;11.40;;;15.00;99.90;;;;;;5072643;28;20060;-83
2021/06/11 01:23:24;;;;;;;13.10;11.80;;;14.90;99.90;;;;;;5072252;28;20037;-83
2021/06/11 01:26:03;;;;;;;12.60;11.30;;;15.00;99.90;;;;;;5071848;28;20508;-78
2021/06/11 01:28:30;;;;;;;11.80;10.70;;;14.90;99.90;;;;;;5063092;28;20032;-85
2021/06/11 01:30:58;;;;;;;13.50;11.48;;;15.00;99.90;;;;;;5053869;28;20119;-85
2021/06/11 01:33:29;;;;;;;13.23;11.60;;;14.90;99.90;;;;;;5072404;28;20121;-85
2021/06/11 01:36:00;;;;;;;12.32;10.98;;;14.90;99.90;;;;;;5063058;28;20437;-85
2021/06/11 01:38:35;;;;;;;13.45;11.80;;;14.90;99.90;;;;;;5071527;28;20032;-86
2021/06/11 01:41:02;;;;;;;13.60;12.20;;;14.80;99.90;;;;;;5071279;28;20063;-86
2021/06/11 01:43:28;;;;;;;14.38;11.98;;;14.80;99.90;;;;;;5072004;28;20024;-86
2021/06/11 01:45:54;;;;;;;12.70;11.48;;;14.80;99.90;;;;;;5071452;28;20033;-85
2021/06/11 01:48:21;;;;;;;11.65;10.57;;;14.80;99.90;;;;;;5072053;28;20025;-85
2021/06/11 01:50:48;;;;;;;13.20;11.90;;;14.80;99.90;;;;;;5072386;28;20382;-83
2021/06/11 01:53:15;;;;;;;11.23;10.13;;;14.80;99.90;;;;;;5071335;28;20057;-85
2021/06/11 01:55:42;;;;;;;11.48;10.38;;;14.80;99.90;;;;;;5064757;28;20036;-82
2021/06/11 01:58:09;;;;;;;12.10;11.00;;;14.70;99.90;;;;;;5070767;28;20031;-82
2021/06/11 02:00:36;;;;;;;12.15;10.95;;;14.70;99.90;;;;;;5071416;28;20488;-81
2021/06/11 02:03:02;;;;;;;12.80;11.45;;;14.70;99.90;;;;;;5071073;28;20032;-81
2021/06/11 02:05:28;;;;;;;11.65;10.57;;;14.60;99.90;;;;;;5071970;28;20024;-82
2021/06/11 02:07:55;;;;;;;11.90;10.77;;;14.60;99.90;;;;;;5061092;28;20043;-80
2021/06/11 02:10:22;;;;;;;12.32;11.13;;;14.60;99.90;;;;;;5071608;28;20036;-80
2021/06/11 02:12:49;;;;;;;12.80;11.50;;;14.60;99.90;;;;;;5071209;28;20107;-78
2021/06/11 02:15:16;;;;;;;14.45;12.95;;;14.60;99.90;;;;;;5071307;28;20039;-80
2021/06/11 02:17:44;;;;;;;12.50;11.35;;;14.60;99.90;;;;;;5071735;28;20055;-83
2021/06/11 02:20:16;;;;;;;12.70;11.40;;;14.50;99.90;;;;;;5069836;28;20559;-82
2021/06/11 02:22:44;;;;;;;12.02;10.85;;;14.50;99.90;;;;;;5062907;28;20462;-83
2021/06/11 02:25:12;;;;;;;12.07;10.88;;;14.50;99.90;;;;;;5052743;28;20036;-83
2021/06/11 02:27:39;;;;;;;12.55;11.23;;;14.40;99.90;;;;;;5070869;28;20386;-81
2021/06/11 02:30:09;;;;;;;13.70;12.30;;;14.40;99.90;;;;;;5070580;28;20032;-81
2021/06/11 02:32:36;;;;;;;13.82;12.52;;;14.40;99.90;;;;;;5071189;28;20036;-81
2021/06/11 02:35:05;;;;;;;15.45;12.50;;;14.40;99.90;;;;;;5052291;28;20496;-81
2021/06/11 02:37:30;;;;;;;15.48;12.48;;;14.40;99.90;;;;;;5071247;28;20053;-81
2021/06/11 02:39:57;;;;;;;13.75;12.45;;;14.40;99.90;;;;;;5069907;28;20457;-81
2021/06/11 02:42:23;;;;;;;13.75;12.27;;;14.40;99.90;;;;;;5062872;28;20037;-81
2021/06/11 02:44:52;;;;;;;13.27;11.82;;;14.40;99.90;;;;;;5071558;28;20032;-81
2021/06/11 02:47:36;;;;;;;12.80;11.60;;;14.30;99.90;;;;;;5070410;28;20494;-81
2021/06/11 02:50:07;;;;;;;12.10;10.90;;;14.30;99.90;;;;;;5070347;28;20029;-83
2021/06/11 02:52:34;;;;;;;14.25;12.85;;;14.30;99.90;;;;;;5070781;28;20048;-85
2021/06/11 02:55:03;;;;;;;14.55;13.10;;;14.20;99.90;;;;;;5070349;28;20028;-86
2021/06/11 02:57:44;;;;;;;15.77;13.85;;;14.20;99.90;;;;;;5053136;28;20509;-87
2021/06/11 03:00:11;;;;;;;17.05;12.75;;;14.30;99.90;;;;;;5070377;28;20035;-82
2021/06/11 03:02:58;;;;;;;14.50;13.02;;;14.30;99.90;;;;;;5071117;28;20029;-83
2021/06/11 03:05:25;;;;;;;15.05;13.52;;;14.30;99.90;;;;;;5053021;28;20044;-81
2021/06/11 03:07:54;;;;;;;13.43;12.13;;;14.30;99.90;;;;;;5045227;28;20068;-81
2021/06/11 03:10:30;;;;;;;13.13;11.93;;;14.30;99.90;;;;;;5052602;28;20031;-82
2021/06/11 03:13:01;;;;;;;16.45;13.55;;;14.30;99.90;;;;;;5069591;28;20484;-81
2021/06/11 03:15:30;;;;;;;14.07;12.60;;;14.20;99.90;;;;;;5071131;28;20461;-82
2021/06/11 03:18:01;;;;;;;14.32;12.93;;;14.30;99.90;;;;;;5069783;28;20384;-82
2021/06/11 03:20:33;;;;;;;14.73;12.63;;;14.30;99.90;;;;;;5071007;28;20166;-83
2021/06/11 03:23:10;;;;;;;14.35;12.95;;;14.30;99.90;;;;;;5070125;28;20036;-82
2021/06/11 03:25:48;;;;;;;14.32;12.93;;;14.30;99.90;;;;;;5070611;28;20354;-83
2021/06/11 03:28:41;;;;;;;13.88;12.48;;;14.30;99.90;;;;;;5070013;28;20036;-83
2021/06/11 03:31:12;;;;;;;14.20;12.82;;;14.30;99.90;;;;;;5052089;28;20036;-82
2021/06/11 03:33:39;;;;;;;13.75;12.32;;;14.20;99.90;;;;;;5074429;28;20384;-82
2021/06/11 03:36:12;;;;;;;13.35;12.05;;;14.20;99.90;;;;;;5073556;28;20033;-81
2021/06/11 03:38:41;;;;;;;13.40;12.05;;;14.20;99.90;;;;;;5074147;28;20038;-82
2021/06/11 03:41:07;;;;;;;13.55;12.25;;;14.20;99.90;;;;;;5072821;28;20504;-82
2021/06/11 03:43:34;;;;;;;13.18;11.82;;;14.20;99.90;;;;;;5056066;28;20113;-81
2021/06/11 03:46:01;;;;;;;13.35;11.90;;;14.20;99.90;;;;;;5073108;28;20025;-81
2021/06/11 03:48:30;;;;;;;13.32;12.13;;;14.20;99.90;;;;;;5073745;28;20095;-81
2021/06/11 03:50:56;;;;;;;14.55;13.15;;;14.20;99.90;;;;;;5073375;28;20027;-78
2021/06/11 03:53:24;;;;;;;13.85;12.50;;;14.20;99.90;;;;;;5074145;28;20478;-82
2021/06/11 03:55:56;;;;;;;13.35;11.95;;;14.20;99.90;;;;;;5073740;28;20029;-82
2021/06/11 03:58:35;;;;;;;14.35;12.65;;;14.20;99.90;;;;;;5073996;28;20031;-81
2021/06/11 04:01:02;;;;;;;14.10;12.63;;;14.20;99.90;;;;;;5073276;28;20048;-82
2021/06/11 04:03:28;;;;;;;16.55;13.00;;;14.30;99.90;;;;;;5073603;28;20025;-79
2021/06/11 04:06:03;;;;;;;15.48;13.73;;;14.30;99.90;;;;;;5073631;28;20039;-77
2021/06/11 04:08:33;;;;;;;15.35;12.95;;;14.40;99.90;;;;;;5052722;28;20187;-82
2021/06/11 04:11:00;;;;;;;13.55;12.27;;;14.50;99.90;;;;;;5072891;28;20028;-83
2021/06/11 04:13:54;;;;;;;13.52;11.95;;;14.60;99.90;;;;;;5073438;28;20082;-83
2021/06/11 04:16:30;;;;;;;12.85;11.65;;;14.70;99.90;;;;;;5072990;28;20111;-83
2021/06/11 04:18:59;;;;;;;12.57;11.38;;;14.70;99.90;;;;;;5073116;28;20035;-78
2021/06/11 04:21:25;;;;;;;13.05;11.68;;;14.80;99.90;;;;;;5073293;28;20102;-82
2021/06/11 04:23:55;;;;;;;11.70;10.50;;;14.80;99.90;;;;;;5073252;28;20032;-82
2021/06/11 04:26:23;;;;;;;11.88;10.68;;;14.80;99.90;;;;;;5073449;28;20059;-82
2021/06/11 04:28:50;;;;;;;14.57;13.10;;;14.90;99.90;;;;;;5054732;28;20124;-81
2021/06/11 04:31:16;;;;;;;13.93;12.45;;;15.00;99.90;;;;;;5054580;28;20595;-82
2021/06/11 04:33:41;;;;;;;12.55;11.25;;;15.00;99.90;;;;;;5054887;28;20043;-82
2021/06/11 04:36:10;;;;;;;12.23;10.90;;;15.00;99.90;;;;;;5072329;28;20024;-82
2021/06/11 04:38:52;;;;;;;12.85;10.45;;;15.10;99.90;;;;;;5054302;28;20024;-81
2021/06/11 04:41:18;;;;;;;10.23;9.20;;;15.10;99.90;;;;;;5035441;28;20046;-83
2021/06/11 04:43:44;;;;;;;11.73;10.57;;;15.20;99.90;;;;;;5054220;28;20032;-83
2021/06/11 04:46:09;;;;;;;12.55;9.73;;;15.30;99.90;;;;;;5069841;28;20033;-82
2021/06/11 04:48:35;;;;;;;11.00;9.82;;;15.40;99.90;;;;;;5072698;28;20511;-82
2021/06/11 04:51:00;;;;;;;10.82;9.82;;;15.40;99.90;;;;;;5072079;28;20028;-83
2021/06/11 04:53:26;;;;;;;12.80;11.50;;;15.50;99.90;;;;;;5072881;28;20052;-83
2021/06/11 04:55:52;;;;;;;12.90;11.60;;;15.70;99.90;;;;;;5072685;28;20078;-83
2021/06/11 04:58:18;;;;;;;12.82;11.52;;;15.80;99.90;;;;;;5072046;28;20334;-83
2021/06/11 05:00:44;;;;;;;11.90;10.52;;;15.90;99.90;;;;;;5072584;28;20035;-82
2021/06/11 05:03:09;;;;;;;12.35;10.80;;;16.00;99.90;;;;;;5080590;28;20032;-83
2021/06/11 05:05:35;;;;;;;13.38;11.23;;;16.10;99.90;;;;;;5068180;28;20105;-83
2021/06/11 05:08:01;;;;;;;14.00;12.18;;;16.20;99.90;;;;;;5063244;28;20033;-82
2021/06/11 05:10:27;;;;;;;11.88;10.63;;;16.20;99.90;;;;;;5062602;28;20033;-82
2021/06/11 05:12:52;;;;;;;11.20;10.02;;;16.30;99.90;;;;;;5047913;28;20044;-82
2021/06/11 05:15:19;;;;;;;9.88;8.95;;;16.40;99.90;;;;;;5064851;28;20016;-83
2021/06/11 05:17:44;;;;;;;10.35;9.35;;;16.50;99.90;;;;;;5072292;28;20143;-83
2021/06/11 05:20:10;;;;;;;11.55;10.32;;;16.60;99.90;;;;;;5073054;28;20068;-83
2021/06/11 05:22:36;;;;;;;11.85;9.73;;;16.70;99.90;;;;;;5071633;28;20460;-83
2021/06/11 05:25:03;;;;;;;10.10;9.18;;;16.80;99.90;;;;;;5071404;28;20020;-81
2021/06/11 05:27:28;;;;;;;11.00;9.65;;;16.90;99.90;;;;;;5072035;28;20051;-83
2021/06/11 05:29:54;;;;;;;12.07;10.60;;;17.00;99.90;;;;;;5072589;28;20448;-83
2021/06/11 05:32:20;;;;;;;12.20;9.65;;;17.10;99.90;;;;;;5071486;28;20025;-83
2021/06/11 05:34:45;;;;;;;9.73;8.82;;;17.20;99.90;;;;;;5071893;28;20473;-80
2021/06/11 05:37:11;;;;;;;9.35;8.45;;;17.30;99.90;;;;;;5071407;28;20036;-75
2021/06/11 05:39:36;;;;;;;9.45;8.50;;;17.40;99.90;;;;;;5071802;28;20119;-81
2021/06/11 05:42:02;;;;;;;10.00;9.00;;;17.50;99.90;;;;;;5070755;28;20052;-81
2021/06/11 05:44:28;;;;;;;9.15;8.35;;;17.70;99.90;;;;;;5071994;28;20044;-80
2021/06/11 05:46:54;;;;;;;9.65;8.68;;;17.80;99.90;;;;;;5072100;28;20028;-90
2021/06/11 05:49:19;;;;;;;12.50;9.57;;;17.90;99.90;;;;;;5071271;28;20108;-86
2021/06/11 05:51:45;;;;;;;9.50;8.50;;;18.10;99.90;;;;;;5072178;28;20028;-82
2021/06/11 05:54:11;;;;;;;9.05;8.25;;;18.20;99.90;;;;;;5052695;28;20039;-79
2021/06/11 05:56:37;;;;;;;11.60;8.48;;;18.30;99.90;;;;;;5071699;28;20029;-81
2021/06/11 05:59:04;;;;;;;10.85;8.93;;;18.20;99.90;;;;;;5070969;28;20032;-77
2021/06/11 06:01:30;;;;;;;10.50;8.60;;;18.20;99.90;;;;;;5071984;28;20036;-83
2021/06/11 06:03:55;;;;;;;11.15;8.43;;;18.30;99.90;;;;;;5072849;28;20028;-77
2021/06/11 06:06:22;;;;;;;10.20;9.20;;;18.30;99.90;;;;;;5070723;28;20108;-80
2021/06/11 06:08:48;;;;;;;11.20;8.88;;;18.30;99.90;;;;;;5053370;28;20028;-80
2021/06/11 06:11:14;;;;;;;9.45;8.55;;;18.30;99.90;;;;;;5061025;28;20043;-79
2021/06/11 06:13:40;;;;;;;9.38;8.48;;;18.40;99.90;;;;;;5046254;28;20028;-81
2021/06/11 06:16:06;;;;;;;11.05;9.63;;;18.40;99.90;;;;;;5069992;28;20029;-80
2021/06/11 06:18:32;;;;;;;10.13;9.05;;;18.50;99.90;;;;;;5071805;28;20029;-79
2021/06/11 06:20:59;;;;;;;9.82;8.90;;;18.60;99.90;;;;;;5071571;28;20505;-81
2021/06/11 06:23:24;;;;;;;9.75;8.75;;;18.60;99.90;;;;;;5071530;28;20042;-81
2021/06/11 06:25:50;;;;;;;13.32;9.82;;;18.70;99.90;;;;;;5071728;28;20501;-80
2021/06/11 06:28:16;;;;;;;10.23;8.77;;;18.70;99.90;;;;;;5052468;28;20123;-79
2021/06/11 06:30:43;;;;;;;10.25;8.75;;;18.70;99.90;;;;;;5071777;28;20035;-80
2021/06/11 06:33:08;;;;;;;10.27;9.10;;;18.80;99.90;;;;;;5070112;28;20031;-79
2021/06/11 06:35:34;;;;;;;11.57;8.60;;;18.90;99.90;;;;;;5052488;28;20032;-79
2021/06/11 06:38:00;;;;;;;11.32;9.85;;;18.90;99.90;;;;;;5053297;28;20028;-80
2021/06/11 06:40:25;;;;;;;11.05;8.75;;;19.00;99.90;;;;;;5066524;28;20043;-81
2021/06/11 06:42:51;;;;;;;10.18;8.88;;;19.10;99.90;;;;;;5053152;28;20036;-80
2021/06/11 06:45:36;;;;;;;10.73;9.38;;;19.10;99.90;;;;;;5070188;28;20027;-80
2021/06/11 06:48:02;;;;;;;12.40;8.63;;;19.20;99.90;;;;;;5052235;28;20366;-75
2021/06/11 06:50:28;;;;;;;9.52;8.63;;;19.30;99.90;;;;;;5070158;28;20028;-75
2021/06/11 06:52:55;;;;;;;10.55;9.45;;;19.40;99.90;;;;;;5070651;28;20048;-75
2021/06/11 06:55:22;;;;;;;12.00;8.50;;;19.60;99.50;;;;;;5070307;28;20032;-76
2021/06/11 06:57:49;;;;;;;11.52;8.40;;;19.60;99.90;;;;;;5071086;28;20029;-76
2021/06/11 07:00:15;;;;;;;9.27;7.90;;;19.70;99.90;;;;;;5069869;28;20032;-77
2021/06/11 07:02:40;;;;;;;8.75;7.95;;;19.80;99.90;;;;;;5071220;28;20086;-77
2021/06/11 07:05:07;;;;;;;11.48;9.45;;;19.90;99.50;;;;;;5069615;28;20033;-75
2021/06/11 07:07:33;;;;;;;13.95;9.07;;;20.00;98.80;;;;;;5070429;28;20028;-77
2021/06/11 07:09:59;;;;;;;10.93;8.70;;;20.10;98.40;;;;;;5074641;28;20039;-77
2021/06/11 07:12:26;;;;;;;12.95;9.30;;;20.10;97.90;;;;;;5073729;28;20063;-77
2021/06/11 07:14:53;;;;;;;12.02;10.02;;;20.30;97.80;;;;;;5074652;28;20055;-77
2021/06/11 07:17:18;;;;;;;11.07;9.63;;;20.40;95.90;;;;;;5074162;28;20089;-77
2021/06/11 07:19:44;;;;;;;10.00;8.93;;;20.60;95.10;;;;;;5074534;28;20033;-76
2021/06/11 07:22:10;;;;;;;11.77;9.68;;;20.70;95.40;;;;;;5072957;28;20374;-76
2021/06/11 07:24:37;;;;;;;11.77;10.52;;;20.80;94.70;;;;;;5073273;28;20020;-77
2021/06/11 07:27:03;;;;;;;12.65;9.77;;;20.90;94.80;;;;;;5073888;28;20151;-76
2021/06/11 07:29:29;;;;;;;11.93;9.63;;;21.00;93.90;;;;;;5073854;28;20025;-76
2021/06/11 07:31:55;;;;;;;15.82;10.35;;;21.10;92.60;;;;;;5073073;28;20044;-77
2021/06/11 07:34:21;;;;;;;12.68;10.35;;;21.30;92.50;;;;;;5073676;28;20082;-77
2021/06/11 07:36:47;;;;;;;11.27;10.05;;;21.50;91.80;;;;;;5074100;28;20116;-77
2021/06/11 07:39:12;;;;;;;10.10;9.07;;;21.60;91.90;;;;;;5073904;28;20037;-82
2021/06/11 07:41:38;;;;;;;10.40;8.45;;;21.60;90.90;;;;;;5074893;28;20032;-81
2021/06/11 07:44:04;;;;;;;11.43;10.25;;;21.80;90.20;;;;;;5072718;28;20033;-79
2021/06/11 07:46:36;;;;;;;10.90;9.00;;;21.90;88.40;;;;;;5069362;28;20028;-81
2021/06/11 07:49:02;;;;;;;17.85;10.15;;;22.00;86.40;;;;;;5074180;28;20040;-82
2021/06/11 07:51:28;;;;;;;12.38;10.40;;;22.10;84.70;;;;;;5074667;28;20031;-82
2021/06/11 07:53:53;;;;;;;13.65;9.73;;;22.30;84.10;;;;;;5074385;28;20044;-81
2021/06/11 07:56:19;;;;;;;12.32;9.30;;;22.40;81.50;;;;;;5057225;28;20021;-80
2021/06/11 07:58:45;;;;;;;10.63;9.52;;;22.50;80.30;;;;;;5052360;28;20082;-81
2021/06/11 08:01:10;;;;;;;10.15;9.18;;;22.60;79.90;;;;;;5071148;28;20478;-80
2021/06/11 08:03:36;;;;;;;9.68;8.68;;;22.80;78.40;;;;;;5057067;28;20050;-79
2021/06/11 08:06:02;;;;;;;11.57;10.23;;;22.80;78.30;;;;;;5073815;28;20792;-80
2021/06/11 08:08:27;;;;;;;15.70;9.93;;;22.90;75.90;;;;;;5064962;28;20028;-79
2021/06/11 08:10:54;;;;;;;8.18;7.47;;;22.90;76.10;;;;;;5073344;28;20052;-79
2021/06/11 08:13:20;;;;;;;11.23;8.88;;;22.90;75.90;;;;;;5073456;28;20119;-79
2021/06/11 08:15:46;;;;;;;9.75;8.38;;;23.10;74.40;;;;;;5069192;28;20035;-82
2021/06/11 08:18:12;;;;;;;8.43;7.57;;;23.10;73.60;;;;;;5072510;28;20064;-79
2021/06/11 08:20:38;;;;;;;7.05;6.35;;;23.20;74.80;;;;;;5073787;28;20044;-81
2021/06/11 08:23:05;;;;;;;10.40;9.30;;;23.30;74.70;;;;;;5069558;28;20032;-78
2021/06/11 08:25:32;;;;;;;12.85;8.55;;;23.40;74.10;;;;;;5073201;28;20025;-78
2021/06/11 08:27:58;;;;;;;11.25;10.00;;;23.50;73.00;;;;;;5047902;28;20028;-78
2021/06/11 08:30:24;;;;;;;9.93;8.93;;;23.70;72.70;;;;;;5072267;28;20036;-78
2021/06/11 08:32:52;;;;;;;15.30;8.80;;;23.80;71.40;;;;;;5073572;28;20035;-78
2021/06/11 08:35:19;;;;;;;8.43;7.63;;;23.90;72.00;;;;;;5073310;28;20492;-79
2021/06/11 08:37:46;;;;;;;12.07;8.63;;;23.90;71.20;;;;;;5074195;28;20024;-80
2021/06/11 08:40:12;;;;;;;10.35;9.27;;;24.00;70.60;;;;;;5068179;28;20077;-77
2021/06/11 08:42:38;;;;;;;8.80;7.90;;;24.20;69.80;;;;;;5072936;28;20036;-78
2021/06/11 08:45:07;;;;;;;9.95;7.82;;;24.20;70.30;;;;;;5073069;28;20056;-77
2021/06/11 08:47:33;;;;;;;12.88;9.75;;;24.30;69.70;;;;;;5073124;28;20028;-80
2021/06/11 08:49:59;;;;;;;10.80;9.18;;;24.40;69.00;;;;;;5073119;28;20033;-78
2021/06/11 08:52:28;;;;;;;11.35;7.32;;;24.50;68.90;;;;;;5071468;28;20052;-79
2021/06/11 08:54:55;;;;;;;9.45;7.97;;;24.60;68.30;;;;;;5072495;28;20032;-79
2021/06/11 08:57:23;;;;;;;10.25;7.63;;;24.70;68.30;;;;;;5071641;28;20111;-78
2021/06/11 08:59:53;;;;;;;9.63;8.63;;;24.80;67.70;;;;;;5072606;28;20028;-78
2021/06/11 09:02:19;;;;;;;13.48;8.30;;;25.10;67.60;;;;;;5071435;28;20370;-78
2021/06/11 09:04:55;;;;;;;7.72;7.03;;;25.30;67.20;;;;;;5072699;28;20037;-78
2021/06/11 09:07:31;;;;;;;10.40;9.05;;;25.30;65.40;;;;;;5063862;28;20040;-78
2021/06/11 09:10:02;;;;;;;11.43;9.02;;;25.40;66.00;;;;;;5064605;28;20037;-78
2021/06/11 09:12:36;;;;;;;10.10;8.27;;;25.40;65.20;;;;;;5064101;28;20078;-79
2021/06/11 09:15:07;;;;;;;9.25;8.38;;;25.50;65.60;;;;;;5054857;28;20087;-79
2021/06/11 09:17:43;;;;;;;;;;;25.50;64.70;;;;;;5072407;28;20029;-78
2021/06/11 09:20:12;;;;;;;9.88;8.50;;;25.60;63.90;;;;;;5071742;28;19966;-77
2021/06/11 09:23:00;;;;;;;10.23;8.80;;;25.80;63.50;;;;;;5072140;28;20032;-79
2021/06/11 09:25:35;;;;;;;19.88;8.38;;;25.80;62.60;;;;;;5071358;28;20090;-79
2021/06/11 09:28:04;;;;;;;9.10;8.30;;;26.00;62.30;;;;;;5072318;28;20107;-79
2021/06/11 09:30:33;;;;;;;10.05;9.05;;;26.00;60.70;;;;;;5053132;28;20040;-78
2021/06/11 09:33:06;;;;;;;14.52;8.68;;;26.20;60.10;;;;;;5063899;28;20020;-79
2021/06/11 09:35:41;;;;;;;10.82;8.10;;;26.20;59.80;;;;;;5071379;28;20094;-79
2021/06/11 09:38:08;;;;;;;10.65;9.57;;;26.30;60.30;;;;;;5063738;28;20029;-78
2021/06/11 09:40:34;;;;;;;13.95;8.90;;;26.40;59.10;;;;;;5065608;28;20060;-79
2021/06/11 09:43:04;;;;;;;7.72;7.03;;;26.40;58.60;;;;;;5070771;28;20493;-79
2021/06/11 09:45:30;;;;;;;9.93;8.68;;;26.50;58.70;;;;;;5070841;28;20098;-80
2021/06/11 09:47:56;;;;;;;10.70;9.55;;;26.70;58.50;;;;;;5071895;28;20111;-79
2021/06/11 09:50:28;;;;;;;10.30;8.93;;;26.70;55.30;;;;;;5070907;28;20079;-78
2021/06/11 09:53:03;;;;;;;8.10;7.30;;;26.70;57.00;;;;;;5071755;28;20268;-79
2021/06/11 09:55:29;;;;;;;8.07;7.30;;;26.70;57.90;;;;;;5070954;28;20024;-78
2021/06/11 09:58:13;;;;;;;10.25;8.85;;;26.70;57.80;;;;;;5071689;28;20579;-79
2021/06/11 10:00:52;;;;;;;10.02;9.02;;;27.00;55.80;;;;;;5071323;28;20067;-78
2021/06/11 10:03:27;;;;;;;8.48;7.18;;;27.20;54.30;;;;;;5070575;28;20040;-79
2021/06/11 10:05:57;;;;;;;7.68;6.97;;;27.30;54.10;;;;;;5045952;28;20074;-78
2021/06/11 10:08:24;;;;;;;;;;;27.30;55.00;;;;;;5064508;28;20025;-78
2021/06/11 10:10:53;;;;;;;10.60;7.72;;;27.20;52.90;;;;;;5070868;28;20395;-79
2021/06/11 10:13:20;;;;;;;9.15;8.30;;;27.10;54.10;;;;;;5070607;28;20033;-78
2021/06/11 10:15:47;;;;;;;11.02;8.05;;;27.20;54.10;;;;;;5071243;28;20043;-78
2021/06/11 10:18:14;;;;;;;13.68;7.93;;;27.40;54.60;;;;;;5070720;28;20051;-78
2021/06/11 10:20:41;;;;;;;12.18;8.95;;;27.60;54.10;;;;;;5071194;28;20044;-79
2021/06/11 10:23:10;;;;;;;9.10;8.05;;;27.90;51.50;;;;;;5071143;28;20124;-78
2021/06/11 10:25:40;;;;;;;11.70;7.03;;;28.00;51.20;;;;;;5071157;28;20107;-78
2021/06/11 10:28:07;;;;;;;9.38;7.15;;;28.20;51.20;;;;;;5071276;28;20058;-78
2021/06/11 10:30:33;;;;;;;8.00;7.20;;;28.20;51.20;;;;;;5070483;28;20473;-79
2021/06/11 10:32:59;;;;;;;8.10;7.20;;;28.40;50.60;;;;;;5070947;28;20036;-78
2021/06/11 10:35:47;;;;;;;9.38;8.40;;;28.60;50.60;;;;;;5070080;28;20435;-78
2021/06/11 10:38:31;;;;;;;8.85;7.80;;;28.70;49.60;;;;;;5070503;28;20028;-78
2021/06/11 10:40:59;;;;;;;7.47;6.78;;;28.90;49.30;;;;;;5071261;28;20063;-78
2021/06/11 10:43:35;;;;;;;8.65;7.50;;;29.00;50.20;;;;;;5074779;28;20039;-79
2021/06/11 10:46:03;;;;;;;7.95;7.25;;;29.00;48.90;;;;;;5074950;28;20103;-79
2021/06/11 10:48:56;;;;;;;9.45;8.27;;;29.00;49.30;;;;;;5074314;28;20017;-80
2021/06/11 10:51:32;;;;;;;7.65;6.85;;;29.30;45.60;;;;;;5072849;28;20039;-80
2021/06/11 10:54:18;;;;;;;11.45;6.35;;;29.20;46.20;;;;;;5075384;28;20428;-80
2021/06/11 10:56:56;;;;;;;8.23;6.97;;;29.30;45.50;;;;;;5067148;28;20034;-80
2021/06/11 10:59:46;;;;;;;8.30;7.50;;;29.30;44.50;;;;;;5074038;28;20036;-80
2021/06/11 11:02:12;;;;;;;;;;;29.30;46.90;;;;;;5068979;28;20500;-78
2021/06/11 11:04:41;;;;;;;8.15;6.90;;;29.20;46.30;;;;;;5075053;28;20312;-80
2021/06/11 11:07:28;;;;;;;9.30;7.70;;;29.40;46.00;;;;;;5074562;28;20040;-80
2021/06/11 11:10:15;;;;;;;9.45;7.47;;;29.40;46.20;;;;;;5072561;28;20052;-78
2021/06/11 11:13:05;;;;;;;10.45;7.47;;;29.40;45.60;;;;;;5075507;28;20032;-79
2021/06/11 11:15:33;;;;;;;10.13;6.53;;;29.40;45.20;;;;;;5055125;28;20033;-79
2021/06/11 11:17:59;;;;;;;9.98;6.85;;;29.30;46.60;;;;;;5074615;28;20040;-78
2021/06/11 11:20:36;;;;;;;7.43;6.72;;;29.30;46.60;;;;;;5073209;28;20045;-79
2021/06/11 11:23:08;;;;;;;17.33;7.55;;;29.50;45.90;;;;;;5074852;28;20033;-79
2021/06/11 11:25:34;;;;;;;6.03;4.97;;;29.70;46.40;;;;;;5074078;28;20035;-80
2021/06/11 11:28:00;;;;;;;8.82;6.57;;;30.00;46.50;;;;;;5075055;28;20476;-80
2021/06/11 11:30:28;;;;;;;10.10;6.85;;;30.40;45.00;;;;;;5073260;28;20524;-78
2021/06/11 11:32:55;;;;;;;7.70;6.90;;;30.50;45.00;;;;;;5074109;28;20039;-78
2021/06/11 11:35:22;;;;;;;8.30;7.60;;;30.60;45.90;;;;;;5073368;28;20043;-79
2021/06/11 11:37:51;;;;;;;7.78;7.07;;;30.70;45.00;;;;;;5065998;28;20102;-79
2021/06/11 11:40:18;;;;;;;10.35;7.57;;;30.70;44.60;;;;;;5072048;28;20036;-78
2021/06/11 11:42:44;;;;;;;11.50;6.85;;;30.20;44.70;;;;;;5071976;28;20032;-78
2021/06/11 11:45:10;;;;;;;9.40;7.38;;;29.80;46.20;;;;;;5074028;28;20028;-79
2021/06/11 11:47:36;;;;;;;10.77;7.45;;;29.50;46.60;;;;;;5072496;28;20033;-79
2021/06/11 11:50:03;;;;;;;7.22;6.63;;;29.10;47.50;;;;;;5074164;28;20517;-79
2021/06/11 11:52:32;;;;;;;6.82;6.20;;;28.60;47.10;;;;;;5072297;28;20173;-78
2021/06/11 11:54:59;;;;;;;8.75;7.55;;;28.40;48.10;;;;;;5074231;28;20032;-78
2021/06/11 11:57:25;;;;;;;9.10;8.35;;;28.50;49.10;;;;;;5073312;28;20521;-78
2021/06/11 11:59:51;;;;;;;7.63;6.93;;;28.60;47.40;;;;;;5073718;28;20048;-80
2021/06/11 12:02:18;;;;;;;9.20;6.07;;;28.80;48.40;;;;;;5073016;28;20020;-78
2021/06/11 12:04:43;;;;;;;7.75;6.93;;;29.10;48.10;;;;;;5073381;28;20073;-78
2021/06/11 12:07:09;;;;;;;10.02;7.40;;;29.50;47.10;;;;;;5073457;28;20481;-78
2021/06/11 12:09:35;;;;;;;8.95;7.18;;;29.90;47.50;;;;;;5055046;28;20043;-79
2021/06/11 12:12:01;;;;;;;9.43;8.50;;;30.10;45.20;;;;;;5075503;28;20351;-78
2021/06/11 12:14:26;;;;;;;7.53;6.93;;;30.30;44.60;;;;;;5075698;28;20028;-78
2021/06/11 12:16:53;;;;;;;7.18;6.57;;;30.30;44.90;;;;;;5073313;28;20032;-78
2021/06/11 12:19:18;;;;;;;6.75;6.15;;;30.40;45.40;;;;;;5073093;28;20377;-78
2021/06/11 12:21:44;;;;;;;7.85;7.18;;;30.80;44.50;;;;;;5073741;28;20028;-79
2021/06/11 12:24:10;;;;;;;7.97;7.18;;;30.90;44.30;;;;;;5073602;28;20028;-79
2021/06/11 12:26:36;;;;;;;9.80;7.18;;;30.80;43.90;;;;;;5072652;28;20115;-78
2021/06/11 12:29:02;;;;;;;6.72;6.15;;;30.60;43.30;;;;;;5072948;28;20376;-79
2021/06/11 12:31:30;;;;;;;7.95;7.15;;;30.60;44.30;;;;;;5064148;28;20032;-79
2021/06/11 12:33:55;;;;;;;7.45;6.85;;;30.70;42.20;;;;;;5073316;28;20389;-79
2021/06/11 12:36:21;;;;;;;6.15;5.63;;;30.50;42.20;;;;;;5072241;28;20029;-79
2021/06/11 12:38:47;;;;;;;8.27;5.93;;;30.40;43.10;;;;;;5073019;28;20020;-79
2021/06/11 12:41:15;;;;;;;6.63;6.03;;;30.50;43.40;;;;;;5051835;28;20573;-77
2021/06/11 12:46:25;;;;;;;6.22;5.57;;;31.10;42.70;;;;;;5072107;28;20039;-78